createdAt,value
2022-10-13T00:04:38.607Z,13.98
2022-10-13T00:09:40.024Z,13.82
2022-10-13T00:14:41.567Z,13.66
2022-10-13T00:19:42.966Z,13.56
2022-10-13T00:24:44.684Z,13.54
2022-10-13T00:29:47.154Z,13.51
2022-10-13T00:34:48.579Z,13.45
2022-10-13T00:39:50.814Z,13.25
2022-10-13T00:45:28.715Z,13.08
2022-10-13T00:50:37.626Z,13.00
2022-10-13T00:55:41.759Z,12.94
2022-10-13T01:00:46.689Z,12.99
2022-10-13T01:05:51.387Z,13.05
2022-10-13T01:11:17.067Z,13.04
2022-10-13T01:16:21.429Z,13.04
2022-10-13T01:21:39.008Z,13.11
2022-10-13T01:27:08.075Z,13.09
2022-10-13T01:32:29.790Z,13.15
2022-10-13T01:38:11.319Z,13.21
2022-10-13T01:43:26.062Z,13.23
2022-10-13T01:48:28.594Z,13.18
2022-10-13T01:53:30.755Z,13.11
2022-10-13T01:58:35.920Z,13.05
2022-10-13T02:04:00.599Z,12.88
2022-10-13T02:09:43.474Z,12.72
2022-10-13T02:14:47.663Z,12.70
2022-10-13T02:19:49.330Z,12.73
2022-10-13T02:24:51.001Z,12.57
2022-10-13T02:29:55.852Z,12.58
2022-10-13T02:35:01.415Z,12.58
2022-10-13T02:40:03.249Z,12.61
2022-10-13T02:45:05.199Z,12.63
2022-10-13T02:50:07.171Z,12.66
2022-10-13T02:55:08.884Z,12.69
2022-10-13T03:00:10.945Z,12.60
2022-10-13T03:05:12.334Z,12.63
2022-10-13T03:10:13.879Z,12.66
2022-10-13T03:15:15.472Z,12.63
2022-10-13T03:20:17.592Z,12.55
2022-10-13T03:25:18.992Z,12.41
2022-10-13T03:30:20.403Z,12.35
2022-10-13T03:35:21.857Z,12.27
2022-10-13T03:40:23.322Z,12.24
2022-10-13T03:45:24.727Z,12.24
2022-10-13T03:50:26.191Z,12.12
2022-10-13T03:55:28.975Z,11.93
2022-10-13T04:00:30.426Z,11.89
2022-10-13T04:05:34.062Z,11.86
2022-10-13T04:10:35.628Z,11.73
2022-10-13T04:15:40.610Z,11.65
2022-10-13T04:20:42.031Z,11.63
2022-10-13T04:25:43.454Z,11.57
2022-10-13T04:30:49.265Z,11.51
2022-10-13T04:35:51.031Z,11.56
2022-10-13T04:40:52.414Z,11.45
2022-10-13T04:45:53.799Z,11.57
2022-10-13T04:51:03.425Z,11.71
2022-10-13T04:56:08.314Z,11.74
2022-10-13T05:01:18.850Z,11.77
2022-10-13T05:06:35.814Z,11.75
2022-10-13T05:11:37.402Z,11.77
2022-10-13T05:16:38.787Z,11.77
2022-10-13T05:21:40.263Z,11.75
2022-10-13T05:26:41.913Z,11.76
2022-10-13T05:31:43.294Z,11.65
2022-10-13T05:36:44.672Z,11.46
2022-10-13T05:41:46.115Z,11.39
2022-10-13T05:46:55.111Z,11.35
2022-10-13T05:52:03.208Z,11.28
2022-10-13T05:57:08.764Z,11.31
2022-10-13T06:02:14.662Z,11.34
2022-10-13T06:07:16.980Z,11.34
2022-10-13T06:12:18.566Z,11.54
2022-10-13T06:17:20.255Z,11.63
2022-10-13T06:22:22.070Z,11.63
2022-10-13T06:27:23.961Z,11.77
2022-10-13T06:32:27.969Z,11.76
2022-10-13T06:37:29.380Z,11.93
2022-10-13T06:42:30.878Z,12.08
2022-10-13T06:47:44.601Z,12.11
2022-10-13T06:52:46.507Z,12.20
2022-10-13T06:57:48.142Z,12.35
2022-10-13T07:02:51.202Z,12.53
2022-10-13T07:07:53.003Z,12.71
2022-10-13T07:12:54.392Z,12.51
2022-10-13T07:17:57.876Z,12.56
2022-10-13T07:22:59.318Z,12.68
2022-10-13T07:28:00.755Z,12.97
2022-10-13T07:33:02.133Z,13.10
2022-10-13T07:38:03.548Z,13.15
2022-10-13T07:43:04.945Z,13.32
2022-10-13T07:48:06.689Z,13.74
2022-10-13T07:53:08.135Z,14.15
2022-10-13T07:58:09.818Z,14.51
2022-10-13T08:03:11.219Z,14.85
2022-10-13T08:08:12.623Z,15.02
2022-10-13T08:13:14.244Z,15.11
2022-10-13T08:18:16.081Z,15.12
2022-10-13T08:23:17.483Z,15.21
2022-10-13T08:28:27.758Z,15.10
2022-10-13T08:33:29.180Z,15.12
2022-10-13T08:38:30.564Z,15.18
2022-10-13T08:43:32.071Z,15.32
2022-10-13T08:48:40.138Z,15.46
2022-10-13T08:53:43.929Z,15.62
2022-10-13T08:58:48.934Z,15.62
2022-10-13T09:04:11.127Z,15.94
2022-10-13T09:09:17.891Z,16.41
2022-10-13T09:14:26.037Z,16.43
2022-10-13T09:19:34.655Z,16.27
2022-10-13T09:24:36.073Z,16.68
2022-10-13T09:29:37.503Z,17.41
2022-10-13T09:34:38.943Z,17.42
2022-10-13T09:39:40.343Z,18.10
2022-10-13T09:44:41.883Z,18.18
2022-10-13T09:49:44.043Z,18.25
2022-10-13T09:54:51.285Z,17.95
2022-10-13T10:00:16.989Z,17.62
2022-10-13T10:05:26.948Z,17.35
2022-10-13T10:10:36.778Z,16.99
2022-10-13T10:16:14.708Z,16.98
2022-10-13T10:21:36.576Z,17.05
2022-10-13T10:26:54.729Z,17.06
2022-10-13T10:32:27.705Z,17.24
2022-10-13T10:37:34.968Z,17.48
2022-10-13T10:43:01.704Z,17.71
2022-10-13T10:48:16.160Z,17.82
2022-10-13T10:53:27.703Z,18.07
2022-10-13T10:58:49.552Z,18.20
2022-10-13T11:04:18.895Z,18.24
2022-10-13T11:09:41.925Z,18.39
2022-10-13T11:14:43.319Z,18.50
2022-10-13T11:19:46.475Z,19.43
2022-10-13T11:24:56.632Z,20.52
2022-10-13T11:30:00.197Z,21.09
2022-10-13T11:35:04.588Z,20.67
2022-10-13T11:40:28.046Z,20.04
2022-10-13T11:45:38.499Z,20.14
2022-10-13T11:51:04.374Z,19.97
2022-10-13T11:56:19.220Z,19.28
2022-10-13T12:01:20.861Z,18.86
2022-10-13T12:06:25.921Z,18.78
2022-10-13T12:11:37.470Z,18.98
2022-10-13T12:16:51.568Z,19.55
2022-10-13T12:22:00.821Z,19.64
2022-10-13T12:27:10.873Z,19.43
2022-10-13T12:32:30.287Z,19.39
2022-10-13T12:37:35.115Z,19.54
2022-10-13T12:42:38.198Z,19.78
2022-10-13T12:47:46.679Z,21.09
2022-10-13T12:52:48.554Z,21.20
2022-10-13T12:57:51.418Z,20.03
2022-10-13T13:03:07.072Z,19.76
2022-10-13T13:08:30.261Z,19.78
2022-10-13T13:13:31.606Z,19.83
2022-10-13T13:18:36.935Z,19.78
2022-10-13T13:23:38.424Z,19.51
2022-10-13T13:28:54.902Z,19.06
2022-10-13T13:33:56.323Z,18.84
2022-10-13T13:38:57.693Z,18.75
2022-10-13T13:43:59.115Z,18.52
2022-10-13T13:49:00.703Z,18.47
2022-10-13T13:54:02.128Z,18.26
2022-10-13T13:59:03.547Z,18.22
2022-10-13T14:04:05.032Z,18.30
2022-10-13T14:09:06.447Z,18.30
2022-10-13T14:14:07.880Z,18.33
2022-10-13T14:19:09.382Z,18.16
2022-10-13T14:24:10.809Z,18.08
2022-10-13T14:29:12.288Z,17.99
2022-10-13T14:34:13.723Z,17.86
2022-10-13T14:39:15.104Z,17.91
2022-10-13T14:44:16.562Z,18.21
2022-10-13T14:49:19.664Z,18.45
2022-10-13T14:54:23.924Z,18.48
2022-10-13T14:59:25.610Z,18.34
2022-10-13T15:04:27.051Z,18.22
2022-10-13T15:09:38.748Z,18.17
2022-10-13T15:14:49.896Z,18.00
2022-10-13T15:19:51.372Z,17.98
2022-10-13T15:24:52.800Z,17.94
2022-10-13T15:29:54.190Z,17.70
2022-10-13T15:34:55.605Z,17.63
2022-10-13T15:39:57.808Z,17.54
2022-10-13T15:45:14.521Z,17.36
2022-10-13T15:50:16.070Z,17.27
2022-10-13T15:55:18.031Z,17.21
2022-10-13T16:00:19.460Z,17.23
2022-10-13T16:05:20.871Z,17.12
2022-10-13T16:10:22.309Z,17.03
2022-10-13T16:15:23.747Z,17.01
2022-10-13T16:20:25.323Z,17.00
2022-10-13T16:25:27.115Z,16.94
2022-10-13T16:30:28.682Z,16.82
2022-10-13T16:35:30.149Z,16.76
2022-10-13T16:40:31.564Z,16.65
2022-10-13T16:45:54.973Z,16.54
2022-10-13T16:50:55.310Z,16.47
2022-10-13T16:55:57.631Z,16.32
2022-10-13T17:01:04.448Z,16.26
2022-10-13T17:06:06.603Z,16.24
2022-10-13T17:11:22.753Z,16.19
2022-10-13T17:16:25.098Z,16.22
2022-10-13T17:21:26.538Z,16.22
2022-10-13T17:26:28.274Z,16.12
2022-10-13T17:31:30.178Z,16.08
2022-10-13T17:36:31.988Z,16.04
2022-10-13T17:41:35.820Z,16.00
2022-10-13T17:46:38.597Z,15.98
2022-10-13T17:51:42.307Z,15.97
2022-10-13T17:56:43.990Z,15.98
2022-10-13T18:01:45.912Z,15.99
2022-10-13T18:06:47.563Z,15.96
2022-10-13T18:11:51.077Z,15.89
2022-10-13T18:16:53.389Z,15.75
2022-10-13T18:21:54.790Z,15.70
2022-10-13T18:26:56.282Z,15.68
2022-10-13T18:31:58.354Z,15.61
2022-10-13T18:36:59.829Z,15.52
2022-10-13T18:42:01.247Z,15.49
2022-10-13T18:47:08.573Z,15.43
2022-10-13T18:52:10.011Z,15.45
2022-10-13T18:57:14.088Z,15.45
2022-10-13T19:02:15.583Z,15.50
2022-10-13T19:07:17.022Z,15.52
2022-10-13T19:12:18.394Z,15.60
2022-10-13T19:17:20.036Z,15.52
2022-10-13T19:22:21.573Z,15.51
2022-10-13T19:27:23.251Z,15.54
2022-10-13T19:32:24.996Z,15.52
2022-10-13T19:37:26.427Z,15.29
2022-10-13T19:42:28.161Z,15.10
2022-10-13T19:47:29.640Z,14.80
2022-10-13T19:52:31.054Z,14.59
2022-10-13T19:57:32.451Z,14.65
2022-10-13T20:02:33.915Z,14.63
2022-10-13T20:07:35.351Z,14.77
2022-10-13T20:12:40.299Z,14.86
2022-10-13T20:17:41.741Z,14.85
2022-10-13T20:22:43.118Z,14.86
2022-10-13T20:27:44.511Z,14.92
2022-10-13T20:32:45.919Z,14.80
2022-10-13T20:37:47.362Z,14.78
2022-10-13T20:42:50.561Z,14.77
2022-10-13T20:47:52.287Z,14.78
2022-10-13T20:52:53.675Z,14.79
2022-10-13T20:57:55.089Z,14.77
2022-10-13T21:03:01.148Z,14.80
2022-10-13T21:08:03.507Z,14.80
2022-10-13T21:13:05.661Z,14.71
2022-10-13T21:18:07.848Z,14.66
2022-10-13T21:23:11.411Z,14.62
2022-10-13T21:28:12.849Z,14.56
2022-10-13T21:33:14.248Z,14.54
2022-10-13T21:38:15.647Z,14.57
2022-10-13T21:43:20.459Z,14.62
2022-10-13T21:48:21.951Z,14.54
2022-10-13T21:53:23.330Z,14.59
2022-10-13T21:58:24.737Z,14.60
2022-10-13T22:03:26.416Z,14.73
2022-10-13T22:08:37.885Z,14.84
2022-10-13T22:13:47.163Z,14.65
2022-10-13T22:18:51.707Z,14.66
2022-10-13T22:23:56.700Z,14.64
2022-10-13T22:28:59.603Z,14.64
2022-10-13T22:34:02.856Z,14.61
2022-10-13T22:39:04.962Z,14.56
2022-10-13T22:44:06.392Z,14.46
2022-10-13T22:49:07.921Z,14.46
2022-10-13T22:54:09.494Z,14.41
2022-10-13T22:59:11.815Z,14.38
2022-10-13T23:04:13.240Z,14.37
2022-10-13T23:09:14.641Z,14.33
2022-10-13T23:14:16.088Z,14.34
2022-10-13T23:19:17.506Z,14.39
2022-10-13T23:24:18.999Z,14.46
2022-10-13T23:29:20.425Z,14.49
2022-10-13T23:34:21.895Z,14.50
2022-10-13T23:39:23.362Z,14.45
2022-10-13T23:44:24.811Z,14.49
2022-10-13T23:49:27.185Z,14.51
2022-10-13T23:54:30.718Z,14.52
2022-10-13T23:59:32.101Z,14.54
